X  Sluiten METAR luchtvaart weer gegevens      EDDK Cologne Bonn Airport
Temperatuur
9°C Temperatuur
7°C Dauwpunt
87% Vochtigheid



Wind
26 KM/U
16 MPH
7 M/S
14 KTS



250°
WZW
Huidig weer

Lichte Regen Lichte Regen
Luchtdruk 1007.79 (hPa) - 29.76 (inHg)
Zicht 6 (mijl) - 9.7 (km)
Vliegveld
Vliegveld code EDDK

Locatie : Cologne Bonn Airport
Afstand: 56 (km)

Metar:
EDDK 190920Z AUTO 25014KT 9999 -RA OVC010 09/07 Q1008 TEMPO 26015G25KT 4000 SHRA BKN008TCU

Tijd: 2024-04-19 11:20 CEST